sensor_id;sensor_type;location;lat;lon;timestamp;temperature;humidity
6008;DHT22;3032;49.484;11.112;2024-01-15T00:01:44;-1.30;99.90
6008;DHT22;3032;49.484;11.112;2024-01-15T00:04:10;-1.20;99.90
6008;DHT22;3032;49.484;11.112;2024-01-15T00:06:36;-1.00;99.90
6008;DHT22;3032;49.484;11.112;2024-01-15T00:09:01;-1.20;99.90
6008;DHT22;3032;49.484;11.112;2024-01-15T00:11:27;-1.40;99.90
6008;DHT22;3032;49.484;11.112;2024-01-15T00:13:52;-1.50;99.90
6008;DHT22;3032;49.484;11.112;2024-01-15T00:16:18;-1.50;99.90
6008;DHT22;3032;49.484;11.112;2024-01-15T00:18:43;-1.60;99.90
6008;DHT22;3032;49.484;11.112;2024-01-15T00:21:09;-1.60;99.90
6008;DHT22;3032;49.484;11.112;2024-01-15T00:23:35;-1.60;99.90
6008;DHT22;3032;49.484;11.112;2024-01-15T00:26:00;-1.60;99.90
6008;DHT22;3032;49.484;11.112;2024-01-15T00:28:26;-1.70;99.90
6008;DHT22;3032;49.484;11.112;2024-01-15T00:30:51;-1.50;99.90
6008;DHT22;3032;49.484;11.112;2024-01-15T00:33:17;-1.80;99.90
6008;DHT22;3032;49.484;11.112;2024-01-15T00:35:43;-1.80;99.90
6008;DHT22;3032;49.484;11.112;2024-01-15T00:38:08;-1.70;99.90
6008;DHT22;3032;49.484;11.112;2024-01-15T00:40:34;-1.50;99.90
6008;DHT22;3032;49.484;11.112;2024-01-15T00:42:59;-1.50;99.90
6008;DHT22;3032;49.484;11.112;2024-01-15T00:45:25;-1.40;99.90
6008;DHT22;3032;49.484;11.112;2024-01-15T00:47:50;-1.50;99.90
6008;DHT22;3032;49.484;11.112;2024-01-15T00:50:16;-1.40;99.90
6008;DHT22;3032;49.484;11.112;2024-01-15T00:52:42;-1.80;99.90
6008;DHT22;3032;49.484;11.112;2024-01-15T00:55:08;-1.90;99.90
6008;DHT22;3032;49.484;11.112;2024-01-15T00:57:33;-2.00;99.90
6008;DHT22;3032;49.484;11.112;2024-01-15T00:59:59;-1.90;99.90
6008;DHT22;3032;49.484;11.112;2024-01-15T01:02:26;-1.70;99.90
6008;DHT22;3032;49.484;11.112;2024-01-15T01:04:51;-1.90;99.90
6008;DHT22;3032;49.484;11.112;2024-01-15T01:07:17;-1.80;99.90
6008;DHT22;3032;49.484;11.112;2024-01-15T01:09:42;-1.70;99.90
6008;DHT22;3032;49.484;11.112;2024-01-15T01:12:09;-1.60;99.90
6008;DHT22;3032;49.484;11.112;2024-01-15T01:14:34;-1.50;99.90
6008;DHT22;3032;49.484;11.112;2024-01-15T01:17:00;-1.60;99.90
6008;DHT22;3032;49.484;11.112;2024-01-15T01:19:25;-1.40;99.90
6008;DHT22;3032;49.484;11.112;2024-01-15T01:21:51;-1.10;99.90
6008;DHT22;3032;49.484;11.112;2024-01-15T01:24:17;-1.20;99.90
6008;DHT22;3032;49.484;11.112;2024-01-15T01:26:42;-1.20;99.90
6008;DHT22;3032;49.484;11.112;2024-01-15T01:29:08;-1.40;99.90
6008;DHT22;3032;49.484;11.112;2024-01-15T01:31:33;-1.30;99.90
6008;DHT22;3032;49.484;11.112;2024-01-15T01:33:59;-1.10;99.90
6008;DHT22;3032;49.484;11.112;2024-01-15T01:36:25;-1.20;99.90
6008;DHT22;3032;49.484;11.112;2024-01-15T01:38:50;-1.10;99.90
6008;DHT22;3032;49.484;11.112;2024-01-15T01:41:17;-1.20;99.90
6008;DHT22;3032;49.484;11.112;2024-01-15T01:43:43;-1.40;99.90
6008;DHT22;3032;49.484;11.112;2024-01-15T01:46:09;-1.50;99.90
6008;DHT22;3032;49.484;11.112;2024-01-15T01:48:35;-1.40;99.90
6008;DHT22;3032;49.484;11.112;2024-01-15T01:51:02;-1.10;99.90
6008;DHT22;3032;49.484;11.112;2024-01-15T01:53:29;-1.10;99.90
6008;DHT22;3032;49.484;11.112;2024-01-15T01:55:57;-1.10;99.90
6008;DHT22;3032;49.484;11.112;2024-01-15T01:58:23;-1.20;99.90
6008;DHT22;3032;49.484;11.112;2024-01-15T02:00:48;-1.10;99.90
6008;DHT22;3032;49.484;11.112;2024-01-15T02:03:15;-1.10;99.90
6008;DHT22;3032;49.484;11.112;2024-01-15T02:05:43;-1.20;99.90
6008;DHT22;3032;49.484;11.112;2024-01-15T02:08:10;-1.00;99.90
6008;DHT22;3032;49.484;11.112;2024-01-15T02:10:35;-1.10;99.90
6008;DHT22;3032;49.484;11.112;2024-01-15T02:13:02;-1.10;99.90
6008;DHT22;3032;49.484;11.112;2024-01-15T02:15:28;-1.20;99.90
6008;DHT22;3032;49.484;11.112;2024-01-15T02:20:28;-1.10;99.90
6008;DHT22;3032;49.484;11.112;2024-01-15T02:22:53;-1.10;99.90
6008;DHT22;3032;49.484;11.112;2024-01-15T02:25:19;-1.00;99.90
6008;DHT22;3032;49.484;11.112;2024-01-15T02:27:46;-0.80;99.90
6008;DHT22;3032;49.484;11.112;2024-01-15T02:30:12;-0.90;99.90
6008;DHT22;3032;49.484;11.112;2024-01-15T02:32:38;-0.90;99.90
6008;DHT22;3032;49.484;11.112;2024-01-15T02:35:04;-1.10;99.90
6008;DHT22;3032;49.484;11.112;2024-01-15T02:37:30;-1.10;99.90
6008;DHT22;3032;49.484;11.112;2024-01-15T02:39:56;-1.20;99.90
6008;DHT22;3032;49.484;11.112;2024-01-15T02:42:21;-1.30;99.90
6008;DHT22;3032;49.484;11.112;2024-01-15T02:44:47;-1.20;99.90
6008;DHT22;3032;49.484;11.112;2024-01-15T02:47:14;-0.90;99.90
6008;DHT22;3032;49.484;11.112;2024-01-15T02:49:39;-0.70;99.90
6008;DHT22;3032;49.484;11.112;2024-01-15T02:52:05;-0.70;99.90
6008;DHT22;3032;49.484;11.112;2024-01-15T02:54:31;-0.70;99.90
6008;DHT22;3032;49.484;11.112;2024-01-15T02:56:56;-0.80;99.90
6008;DHT22;3032;49.484;11.112;2024-01-15T02:59:22;-1.00;99.90
6008;DHT22;3032;49.484;11.112;2024-01-15T03:01:47;-0.90;99.90
6008;DHT22;3032;49.484;11.112;2024-01-15T03:04:13;-0.80;99.90
6008;DHT22;3032;49.484;11.112;2024-01-15T03:06:38;-0.70;99.90
6008;DHT22;3032;49.484;11.112;2024-01-15T03:09:04;-0.70;99.90
6008;DHT22;3032;49.484;11.112;2024-01-15T03:11:29;-0.70;99.90
6008;DHT22;3032;49.484;11.112;2024-01-15T03:13:55;-0.60;99.90
6008;DHT22;3032;49.484;11.112;2024-01-15T03:16:20;-0.80;99.90
6008;DHT22;3032;49.484;11.112;2024-01-15T03:18:46;-0.60;99.90
6008;DHT22;3032;49.484;11.112;2024-01-15T03:21:12;-0.40;99.90
6008;DHT22;3032;49.484;11.112;2024-01-15T03:23:37;-0.10;99.90
6008;DHT22;3032;49.484;11.112;2024-01-15T03:26:03;-0.10;99.90
6008;DHT22;3032;49.484;11.112;2024-01-15T03:28:29;-0.10;99.90
6008;DHT22;3032;49.484;11.112;2024-01-15T03:30:55;0.00;99.90
6008;DHT22;3032;49.484;11.112;2024-01-15T03:33:21;0.00;99.90
6008;DHT22;3032;49.484;11.112;2024-01-15T03:35:46;-0.30;99.90
6008;DHT22;3032;49.484;11.112;2024-01-15T03:38:12;-0.10;99.90
6008;DHT22;3032;49.484;11.112;2024-01-15T03:40:37;0.00;99.90
6008;DHT22;3032;49.484;11.112;2024-01-15T03:43:03;0.10;99.90
6008;DHT22;3032;49.484;11.112;2024-01-15T03:45:29;-0.10;99.90
6008;DHT22;3032;49.484;11.112;2024-01-15T03:47:54;-0.40;99.90
6008;DHT22;3032;49.484;11.112;2024-01-15T03:50:20;-0.70;99.90
6008;DHT22;3032;49.484;11.112;2024-01-15T03:52:45;-0.80;99.90
6008;DHT22;3032;49.484;11.112;2024-01-15T03:55:11;-0.60;99.90
6008;DHT22;3032;49.484;11.112;2024-01-15T03:57:36;-0.20;99.90
6008;DHT22;3032;49.484;11.112;2024-01-15T04:00:02;0.00;99.90
6008;DHT22;3032;49.484;11.112;2024-01-15T04:02:28;0.20;99.90
6008;DHT22;3032;49.484;11.112;2024-01-15T04:04:54;-0.10;99.90
6008;DHT22;3032;49.484;11.112;2024-01-15T04:07:19;-0.40;99.90
6008;DHT22;3032;49.484;11.112;2024-01-15T04:09:45;-0.20;99.90
6008;DHT22;3032;49.484;11.112;2024-01-15T04:12:10;-0.20;99.90
6008;DHT22;3032;49.484;11.112;2024-01-15T04:14:36;-0.20;99.90
6008;DHT22;3032;49.484;11.112;2024-01-15T04:17:02;-0.50;99.90
6008;DHT22;3032;49.484;11.112;2024-01-15T04:19:27;-0.40;99.90
6008;DHT22;3032;49.484;11.112;2024-01-15T04:21:53;-0.20;99.90
6008;DHT22;3032;49.484;11.112;2024-01-15T04:24:18;-0.10;99.90
6008;DHT22;3032;49.484;11.112;2024-01-15T04:26:44;-0.20;99.90
6008;DHT22;3032;49.484;11.112;2024-01-15T04:29:10;-0.30;99.90
6008;DHT22;3032;49.484;11.112;2024-01-15T04:31:35;-0.30;99.90
6008;DHT22;3032;49.484;11.112;2024-01-15T04:34:01;-0.40;99.90
6008;DHT22;3032;49.484;11.112;2024-01-15T04:36:26;-0.40;99.90
6008;DHT22;3032;49.484;11.112;2024-01-15T04:38:52;-0.70;99.90
6008;DHT22;3032;49.484;11.112;2024-01-15T04:41:17;-0.80;99.90
6008;DHT22;3032;49.484;11.112;2024-01-15T04:43:43;-0.80;99.90
6008;DHT22;3032;49.484;11.112;2024-01-15T04:46:09;-0.80;99.90
6008;DHT22;3032;49.484;11.112;2024-01-15T04:48:35;-0.90;99.90
6008;DHT22;3032;49.484;11.112;2024-01-15T04:51:00;-1.00;99.90
6008;DHT22;3032;49.484;11.112;2024-01-15T04:53:26;-0.90;99.90
6008;DHT22;3032;49.484;11.112;2024-01-15T04:55:51;-0.90;99.90
6008;DHT22;3032;49.484;11.112;2024-01-15T04:58:17;-1.00;99.90
6008;DHT22;3032;49.484;11.112;2024-01-15T05:00:42;-1.20;99.90
6008;DHT22;3032;49.484;11.112;2024-01-15T05:03:08;-1.10;99.90
6008;DHT22;3032;49.484;11.112;2024-01-15T05:05:33;-1.00;99.90
6008;DHT22;3032;49.484;11.112;2024-01-15T05:07:59;-1.00;99.90
6008;DHT22;3032;49.484;11.112;2024-01-15T05:10:25;-0.80;99.90
6008;DHT22;3032;49.484;11.112;2024-01-15T05:12:50;-0.60;99.90
6008;DHT22;3032;49.484;11.112;2024-01-15T05:15:16;-0.40;99.90
6008;DHT22;3032;49.484;11.112;2024-01-15T05:17:41;-0.50;99.90
6008;DHT22;3032;49.484;11.112;2024-01-15T05:20:07;-0.60;99.90
6008;DHT22;3032;49.484;11.112;2024-01-15T05:22:33;-0.60;99.90
6008;DHT22;3032;49.484;11.112;2024-01-15T05:24:58;-0.60;99.90
6008;DHT22;3032;49.484;11.112;2024-01-15T05:27:24;-0.30;99.90
6008;DHT22;3032;49.484;11.112;2024-01-15T05:29:49;-0.30;99.90
6008;DHT22;3032;49.484;11.112;2024-01-15T05:32:15;-0.60;99.90
6008;DHT22;3032;49.484;11.112;2024-01-15T05:34:40;-0.50;99.90
6008;DHT22;3032;49.484;11.112;2024-01-15T05:37:06;-0.40;99.90
6008;DHT22;3032;49.484;11.112;2024-01-15T05:39:31;-0.30;99.90
6008;DHT22;3032;49.484;11.112;2024-01-15T05:41:58;-0.20;99.90
6008;DHT22;3032;49.484;11.112;2024-01-15T05:44:23;-0.20;99.90
6008;DHT22;3032;49.484;11.112;2024-01-15T05:46:49;-0.20;99.90
6008;DHT22;3032;49.484;11.112;2024-01-15T05:49:14;-0.20;99.90
6008;DHT22;3032;49.484;11.112;2024-01-15T05:51:40;-0.10;99.90
6008;DHT22;3032;49.484;11.112;2024-01-15T05:54:06;-0.20;99.90
6008;DHT22;3032;49.484;11.112;2024-01-15T05:56:31;-0.30;99.90
6008;DHT22;3032;49.484;11.112;2024-01-15T05:58:57;-0.50;99.90
6008;DHT22;3032;49.484;11.112;2024-01-15T06:01:22;-0.40;99.90
6008;DHT22;3032;49.484;11.112;2024-01-15T06:03:48;-0.50;99.90
6008;DHT22;3032;49.484;11.112;2024-01-15T06:06:13;-0.50;99.90
6008;DHT22;3032;49.484;11.112;2024-01-15T06:08:39;-0.50;99.90
6008;DHT22;3032;49.484;11.112;2024-01-15T06:11:05;-0.60;99.90
6008;DHT22;3032;49.484;11.112;2024-01-15T06:13:31;-0.70;99.90
6008;DHT22;3032;49.484;11.112;2024-01-15T06:15:57;-0.50;99.90
6008;DHT22;3032;49.484;11.112;2024-01-15T06:18:22;-0.40;99.90
6008;DHT22;3032;49.484;11.112;2024-01-15T06:20:48;-0.30;99.90
6008;DHT22;3032;49.484;11.112;2024-01-15T06:23:15;-0.30;99.90
6008;DHT22;3032;49.484;11.112;2024-01-15T06:25:40;-0.20;99.90
6008;DHT22;3032;49.484;11.112;2024-01-15T06:28:06;-0.10;99.90
6008;DHT22;3032;49.484;11.112;2024-01-15T06:30:31;-0.20;99.90
6008;DHT22;3032;49.484;11.112;2024-01-15T06:32:57;-0.30;99.90
6008;DHT22;3032;49.484;11.112;2024-01-15T06:35:22;-0.40;99.90
6008;DHT22;3032;49.484;11.112;2024-01-15T06:37:48;-0.30;99.90
6008;DHT22;3032;49.484;11.112;2024-01-15T06:40:13;-0.50;99.90
6008;DHT22;3032;49.484;11.112;2024-01-15T06:42:39;-0.60;99.90
6008;DHT22;3032;49.484;11.112;2024-01-15T06:45:05;-0.70;99.90
6008;DHT22;3032;49.484;11.112;2024-01-15T06:47:31;-0.70;99.90
6008;DHT22;3032;49.484;11.112;2024-01-15T06:49:57;-0.80;99.90
6008;DHT22;3032;49.484;11.112;2024-01-15T06:52:24;-0.70;99.90
6008;DHT22;3032;49.484;11.112;2024-01-15T06:54:49;-0.60;99.90
6008;DHT22;3032;49.484;11.112;2024-01-15T06:57:15;-0.40;99.90
6008;DHT22;3032;49.484;11.112;2024-01-15T06:59:40;-0.30;99.90
6008;DHT22;3032;49.484;11.112;2024-01-15T07:02:06;-0.20;99.90
6008;DHT22;3032;49.484;11.112;2024-01-15T07:04:31;-0.20;99.90
6008;DHT22;3032;49.484;11.112;2024-01-15T07:06:57;-0.40;99.90
6008;DHT22;3032;49.484;11.112;2024-01-15T07:09:22;-0.30;99.90
6008;DHT22;3032;49.484;11.112;2024-01-15T07:11:48;-0.50;99.90
6008;DHT22;3032;49.484;11.112;2024-01-15T07:14:14;-0.50;99.90
6008;DHT22;3032;49.484;11.112;2024-01-15T07:16:39;-0.30;99.90
6008;DHT22;3032;49.484;11.112;2024-01-15T07:19:05;-0.20;99.90
6008;DHT22;3032;49.484;11.112;2024-01-15T07:21:31;-0.10;99.90
6008;DHT22;3032;49.484;11.112;2024-01-15T07:23:57;-0.20;99.90
6008;DHT22;3032;49.484;11.112;2024-01-15T07:26:22;0.00;99.90
6008;DHT22;3032;49.484;11.112;2024-01-15T07:28:48;-0.20;99.90
6008;DHT22;3032;49.484;11.112;2024-01-15T07:31:15;-0.20;99.90
6008;DHT22;3032;49.484;11.112;2024-01-15T07:33:41;-0.10;99.90
6008;DHT22;3032;49.484;11.112;2024-01-15T07:36:07;-0.20;99.90
6008;DHT22;3032;49.484;11.112;2024-01-15T07:38:32;-0.20;99.90
6008;DHT22;3032;49.484;11.112;2024-01-15T07:40:58;-0.10;99.90
6008;DHT22;3032;49.484;11.112;2024-01-15T07:43:23;0.00;99.90
6008;DHT22;3032;49.484;11.112;2024-01-15T07:45:49;0.00;99.90
6008;DHT22;3032;49.484;11.112;2024-01-15T07:48:15;-0.10;99.90
6008;DHT22;3032;49.484;11.112;2024-01-15T07:50:40;-0.10;99.90
6008;DHT22;3032;49.484;11.112;2024-01-15T07:53:06;0.00;99.90
6008;DHT22;3032;49.484;11.112;2024-01-15T07:55:31;-0.10;99.90
6008;DHT22;3032;49.484;11.112;2024-01-15T07:57:58;-0.20;99.90
6008;DHT22;3032;49.484;11.112;2024-01-15T08:00:25;-0.30;99.90
6008;DHT22;3032;49.484;11.112;2024-01-15T08:02:50;-0.20;99.90
6008;DHT22;3032;49.484;11.112;2024-01-15T08:05:16;-0.30;99.90
6008;DHT22;3032;49.484;11.112;2024-01-15T08:07:42;-0.30;99.90
6008;DHT22;3032;49.484;11.112;2024-01-15T08:10:08;0.10;99.90
6008;DHT22;3032;49.484;11.112;2024-01-15T08:12:33;0.00;99.90
6008;DHT22;3032;49.484;11.112;2024-01-15T08:14:59;0.00;99.90
6008;DHT22;3032;49.484;11.112;2024-01-15T08:17:24;0.10;99.90
6008;DHT22;3032;49.484;11.112;2024-01-15T08:19:54;0.00;99.90
6008;DHT22;3032;49.484;11.112;2024-01-15T08:22:19;0.00;99.90
6008;DHT22;3032;49.484;11.112;2024-01-15T08:24:45;0.00;99.90
6008;DHT22;3032;49.484;11.112;2024-01-15T08:27:11;0.30;99.90
6008;DHT22;3032;49.484;11.112;2024-01-15T08:29:36;0.50;99.90
6008;DHT22;3032;49.484;11.112;2024-01-15T08:32:02;0.30;99.90
6008;DHT22;3032;49.484;11.112;2024-01-15T08:34:27;0.40;99.90
6008;DHT22;3032;49.484;11.112;2024-01-15T08:36:53;0.40;99.90
6008;DHT22;3032;49.484;11.112;2024-01-15T08:39:19;0.60;99.90
6008;DHT22;3032;49.484;11.112;2024-01-15T08:41:46;0.50;99.90
6008;DHT22;3032;49.484;11.112;2024-01-15T08:44:14;0.60;99.90
6008;DHT22;3032;49.484;11.112;2024-01-15T08:46:40;0.60;99.90
6008;DHT22;3032;49.484;11.112;2024-01-15T08:49:05;0.50;99.90
6008;DHT22;3032;49.484;11.112;2024-01-15T08:51:31;0.40;99.90
6008;DHT22;3032;49.484;11.112;2024-01-15T08:53:57;0.70;99.90
6008;DHT22;3032;49.484;11.112;2024-01-15T08:56:23;0.80;99.90
6008;DHT22;3032;49.484;11.112;2024-01-15T08:58:48;0.80;99.90
6008;DHT22;3032;49.484;11.112;2024-01-15T09:01:14;0.60;99.90
6008;DHT22;3032;49.484;11.112;2024-01-15T09:03:40;0.70;99.90
6008;DHT22;3032;49.484;11.112;2024-01-15T09:06:07;0.90;99.90
6008;DHT22;3032;49.484;11.112;2024-01-15T09:08:33;1.10;99.90
6008;DHT22;3032;49.484;11.112;2024-01-15T09:10:58;1.10;99.90
6008;DHT22;3032;49.484;11.112;2024-01-15T09:13:24;0.90;99.90
6008;DHT22;3032;49.484;11.112;2024-01-15T09:15:50;0.70;99.90
6008;DHT22;3032;49.484;11.112;2024-01-15T09:18:15;0.80;99.90
6008;DHT22;3032;49.484;11.112;2024-01-15T09:20:41;1.00;99.90
6008;DHT22;3032;49.484;11.112;2024-01-15T09:23:06;0.90;99.90
6008;DHT22;3032;49.484;11.112;2024-01-15T09:25:32;1.10;99.90
6008;DHT22;3032;49.484;11.112;2024-01-15T09:27:58;1.10;99.90
6008;DHT22;3032;49.484;11.112;2024-01-15T09:30:23;1.40;99.90
6008;DHT22;3032;49.484;11.112;2024-01-15T09:32:49;1.40;99.90
6008;DHT22;3032;49.484;11.112;2024-01-15T09:35:14;1.10;99.90
6008;DHT22;3032;49.484;11.112;2024-01-15T09:37:40;1.00;99.90
6008;DHT22;3032;49.484;11.112;2024-01-15T09:40:08;1.20;99.90
6008;DHT22;3032;49.484;11.112;2024-01-15T09:42:34;1.10;99.90
6008;DHT22;3032;49.484;11.112;2024-01-15T09:45:02;1.20;99.90
6008;DHT22;3032;49.484;11.112;2024-01-15T09:47:29;2.00;99.90
6008;DHT22;3032;49.484;11.112;2024-01-15T09:49:55;1.50;99.90
6008;DHT22;3032;49.484;11.112;2024-01-15T09:52:23;1.60;99.90
6008;DHT22;3032;49.484;11.112;2024-01-15T09:54:49;1.50;99.90
6008;DHT22;3032;49.484;11.112;2024-01-15T09:57:16;1.30;99.90
6008;DHT22;3032;49.484;11.112;2024-01-15T09:59:43;1.10;99.90
6008;DHT22;3032;49.484;11.112;2024-01-15T10:02:10;1.10;99.90
6008;DHT22;3032;49.484;11.112;2024-01-15T10:04:39;1.10;99.90
6008;DHT22;3032;49.484;11.112;2024-01-15T10:07:06;1.20;99.90
6008;DHT22;3032;49.484;11.112;2024-01-15T10:09:33;1.10;99.90
6008;DHT22;3032;49.484;11.112;2024-01-15T10:11:59;1.20;99.90
6008;DHT22;3032;49.484;11.112;2024-01-15T10:14:25;1.30;99.90
6008;DHT22;3032;49.484;11.112;2024-01-15T10:16:50;1.50;99.90
6008;DHT22;3032;49.484;11.112;2024-01-15T10:19:16;1.40;99.90
6008;DHT22;3032;49.484;11.112;2024-01-15T10:21:41;1.20;99.90
6008;DHT22;3032;49.484;11.112;2024-01-15T10:24:07;1.40;99.90
6008;DHT22;3032;49.484;11.112;2024-01-15T10:26:33;1.20;99.90
6008;DHT22;3032;49.484;11.112;2024-01-15T10:28:59;1.10;99.90
6008;DHT22;3032;49.484;11.112;2024-01-15T10:31:26;1.20;99.90
6008;DHT22;3032;49.484;11.112;2024-01-15T10:33:51;1.30;99.90
6008;DHT22;3032;49.484;11.112;2024-01-15T10:36:17;1.00;99.90
6008;DHT22;3032;49.484;11.112;2024-01-15T10:38:44;1.20;99.90
6008;DHT22;3032;49.484;11.112;2024-01-15T10:41:10;1.60;99.90
6008;DHT22;3032;49.484;11.112;2024-01-15T10:43:35;1.70;99.90
6008;DHT22;3032;49.484;11.112;2024-01-15T10:46:01;1.90;99.90
6008;DHT22;3032;49.484;11.112;2024-01-15T10:48:28;1.60;99.90
6008;DHT22;3032;49.484;11.112;2024-01-15T10:50:59;1.70;99.90
6008;DHT22;3032;49.484;11.112;2024-01-15T10:53:24;1.80;99.90
6008;DHT22;3032;49.484;11.112;2024-01-15T10:55:50;1.60;99.90
6008;DHT22;3032;49.484;11.112;2024-01-15T10:58:17;1.40;99.90
6008;DHT22;3032;49.484;11.112;2024-01-15T11:00:43;1.30;99.90
6008;DHT22;3032;49.484;11.112;2024-01-15T11:03:09;1.20;99.90
6008;DHT22;3032;49.484;11.112;2024-01-15T11:05:39;1.20;99.90
6008;DHT22;3032;49.484;11.112;2024-01-15T11:08:08;1.30;99.90
6008;DHT22;3032;49.484;11.112;2024-01-15T11:10:41;1.40;99.90
6008;DHT22;3032;49.484;11.112;2024-01-15T11:13:39;1.70;99.90
6008;DHT22;3032;49.484;11.112;2024-01-15T11:16:10;1.60;99.90
6008;DHT22;3032;49.484;11.112;2024-01-15T11:18:48;2.00;99.90
6008;DHT22;3032;49.484;11.112;2024-01-15T11:21:26;2.20;99.90
6008;DHT22;3032;49.484;11.112;2024-01-15T11:24:00;2.00;99.90
6008;DHT22;3032;49.484;11.112;2024-01-15T11:26:31;1.80;99.90
6008;DHT22;3032;49.484;11.112;2024-01-15T11:28:58;1.80;99.90
6008;DHT22;3032;49.484;11.112;2024-01-15T11:34:06;2.10;99.90
6008;DHT22;3032;49.484;11.112;2024-01-15T11:41:58;2.20;99.90
6008;DHT22;3032;49.484;11.112;2024-01-15T11:44:24;2.30;99.90
6008;DHT22;3032;49.484;11.112;2024-01-15T11:47:11;2.10;99.90
6008;DHT22;3032;49.484;11.112;2024-01-15T11:49:58;1.90;99.90
6008;DHT22;3032;49.484;11.112;2024-01-15T11:52:26;1.70;99.90
6008;DHT22;3032;49.484;11.112;2024-01-15T11:57:52;1.80;99.90
6008;DHT22;3032;49.484;11.112;2024-01-15T12:00:20;1.80;99.90
6008;DHT22;3032;49.484;11.112;2024-01-15T12:02:47;2.00;99.90
6008;DHT22;3032;49.484;11.112;2024-01-15T12:05:14;2.10;99.90
6008;DHT22;3032;49.484;11.112;2024-01-15T12:07:41;2.40;99.90
6008;DHT22;3032;49.484;11.112;2024-01-15T12:10:10;2.20;99.90
6008;DHT22;3032;49.484;11.112;2024-01-15T12:12:53;2.10;99.90
6008;DHT22;3032;49.484;11.112;2024-01-15T12:15:21;2.00;99.90
6008;DHT22;3032;49.484;11.112;2024-01-15T12:17:47;1.80;99.90
6008;DHT22;3032;49.484;11.112;2024-01-15T12:20:14;1.60;99.90
6008;DHT22;3032;49.484;11.112;2024-01-15T12:22:41;1.70;99.90
6008;DHT22;3032;49.484;11.112;2024-01-15T12:25:07;1.90;99.90
6008;DHT22;3032;49.484;11.112;2024-01-15T12:27:33;2.00;99.90
6008;DHT22;3032;49.484;11.112;2024-01-15T12:29:59;2.60;99.90
6008;DHT22;3032;49.484;11.112;2024-01-15T12:32:24;1.90;99.90
6008;DHT22;3032;49.484;11.112;2024-01-15T12:34:50;1.80;99.90
6008;DHT22;3032;49.484;11.112;2024-01-15T12:37:18;1.80;99.90
6008;DHT22;3032;49.484;11.112;2024-01-15T12:39:45;2.00;99.90
6008;DHT22;3032;49.484;11.112;2024-01-15T12:42:10;2.20;99.90
6008;DHT22;3032;49.484;11.112;2024-01-15T12:44:36;2.10;99.90
6008;DHT22;3032;49.484;11.112;2024-01-15T12:47:04;2.00;99.90
6008;DHT22;3032;49.484;11.112;2024-01-15T12:49:30;1.80;99.90
6008;DHT22;3032;49.484;11.112;2024-01-15T12:51:59;1.80;99.90
6008;DHT22;3032;49.484;11.112;2024-01-15T12:54:25;2.20;99.90
6008;DHT22;3032;49.484;11.112;2024-01-15T12:56:51;2.60;99.90
6008;DHT22;3032;49.484;11.112;2024-01-15T12:59:17;2.30;99.90
6008;DHT22;3032;49.484;11.112;2024-01-15T13:01:44;2.40;99.90
6008;DHT22;3032;49.484;11.112;2024-01-15T13:04:10;2.20;99.90
6008;DHT22;3032;49.484;11.112;2024-01-15T13:06:35;2.00;99.90
6008;DHT22;3032;49.484;11.112;2024-01-15T13:09:05;2.00;99.90
6008;DHT22;3032;49.484;11.112;2024-01-15T13:11:31;2.20;99.90
6008;DHT22;3032;49.484;11.112;2024-01-15T13:13:57;2.10;99.90
6008;DHT22;3032;49.484;11.112;2024-01-15T13:16:23;2.30;99.90
6008;DHT22;3032;49.484;11.112;2024-01-15T13:18:48;2.00;99.90
6008;DHT22;3032;49.484;11.112;2024-01-15T13:21:15;1.70;99.90
6008;DHT22;3032;49.484;11.112;2024-01-15T13:23:41;1.80;99.90
6008;DHT22;3032;49.484;11.112;2024-01-15T13:26:06;1.80;99.90
6008;DHT22;3032;49.484;11.112;2024-01-15T13:28:32;2.00;99.90
6008;DHT22;3032;49.484;11.112;2024-01-15T13:30:59;1.90;99.90
6008;DHT22;3032;49.484;11.112;2024-01-15T13:33:25;1.90;99.90
6008;DHT22;3032;49.484;11.112;2024-01-15T13:35:50;2.00;99.90
6008;DHT22;3032;49.484;11.112;2024-01-15T13:38:16;1.90;99.90
6008;DHT22;3032;49.484;11.112;2024-01-15T13:40:42;1.80;99.90
6008;DHT22;3032;49.484;11.112;2024-01-15T13:43:10;1.60;99.90
6008;DHT22;3032;49.484;11.112;2024-01-15T13:45:36;1.60;99.90
6008;DHT22;3032;49.484;11.112;2024-01-15T13:48:03;1.70;99.90
6008;DHT22;3032;49.484;11.112;2024-01-15T13:50:36;2.00;99.90
6008;DHT22;3032;49.484;11.112;2024-01-15T13:53:02;2.00;99.90
6008;DHT22;3032;49.484;11.112;2024-01-15T13:55:29;1.70;99.90
6008;DHT22;3032;49.484;11.112;2024-01-15T13:57:55;1.70;99.90
6008;DHT22;3032;49.484;11.112;2024-01-15T14:00:21;1.90;99.90
6008;DHT22;3032;49.484;11.112;2024-01-15T14:02:47;1.50;99.90
6008;DHT22;3032;49.484;11.112;2024-01-15T14:05:13;1.50;99.90
6008;DHT22;3032;49.484;11.112;2024-01-15T14:07:39;1.50;99.90
6008;DHT22;3032;49.484;11.112;2024-01-15T14:10:05;1.30;99.90
6008;DHT22;3032;49.484;11.112;2024-01-15T14:12:33;1.30;99.90
6008;DHT22;3032;49.484;11.112;2024-01-15T14:14:59;1.50;99.90
6008;DHT22;3032;49.484;11.112;2024-01-15T14:17:25;1.70;99.90
6008;DHT22;3032;49.484;11.112;2024-01-15T14:19:51;1.90;99.90
6008;DHT22;3032;49.484;11.112;2024-01-15T14:22:16;2.10;99.90
6008;DHT22;3032;49.484;11.112;2024-01-15T14:24:42;2.00;99.90
6008;DHT22;3032;49.484;11.112;2024-01-15T14:27:07;2.30;99.90
6008;DHT22;3032;49.484;11.112;2024-01-15T14:29:33;2.50;99.90
6008;DHT22;3032;49.484;11.112;2024-01-15T14:31:58;2.70;99.90
6008;DHT22;3032;49.484;11.112;2024-01-15T14:34:25;2.70;99.90
6008;DHT22;3032;49.484;11.112;2024-01-15T14:36:51;2.50;99.90
6008;DHT22;3032;49.484;11.112;2024-01-15T14:39:19;2.40;99.90
6008;DHT22;3032;49.484;11.112;2024-01-15T14:41:45;2.10;99.90
6008;DHT22;3032;49.484;11.112;2024-01-15T14:44:11;2.10;99.90
6008;DHT22;3032;49.484;11.112;2024-01-15T14:46:38;2.20;99.90
6008;DHT22;3032;49.484;11.112;2024-01-15T14:49:03;2.10;99.90
6008;DHT22;3032;49.484;11.112;2024-01-15T14:51:29;2.10;99.90
6008;DHT22;3032;49.484;11.112;2024-01-15T14:53:55;2.20;99.90
6008;DHT22;3032;49.484;11.112;2024-01-15T14:56:20;1.80;99.90
6008;DHT22;3032;49.484;11.112;2024-01-15T14:58:46;1.70;99.90
6008;DHT22;3032;49.484;11.112;2024-01-15T15:01:12;1.60;99.90
6008;DHT22;3032;49.484;11.112;2024-01-15T15:03:38;1.60;99.90
6008;DHT22;3032;49.484;11.112;2024-01-15T15:06:04;1.80;99.90
6008;DHT22;3032;49.484;11.112;2024-01-15T15:08:30;1.70;99.90
6008;DHT22;3032;49.484;11.112;2024-01-15T15:10:56;1.70;99.90
6008;DHT22;3032;49.484;11.112;2024-01-15T15:13:22;1.60;99.90
6008;DHT22;3032;49.484;11.112;2024-01-15T15:15:51;1.30;99.90
6008;DHT22;3032;49.484;11.112;2024-01-15T15:18:17;1.40;99.90
6008;DHT22;3032;49.484;11.112;2024-01-15T15:20:43;1.30;99.90
6008;DHT22;3032;49.484;11.112;2024-01-15T15:23:08;1.40;99.90
6008;DHT22;3032;49.484;11.112;2024-01-15T15:25:36;1.60;99.90
6008;DHT22;3032;49.484;11.112;2024-01-15T15:28:02;1.60;99.90
6008;DHT22;3032;49.484;11.112;2024-01-15T15:30:33;1.40;99.90
6008;DHT22;3032;49.484;11.112;2024-01-15T15:32:58;1.30;99.90
6008;DHT22;3032;49.484;11.112;2024-01-15T15:35:24;1.20;99.90
6008;DHT22;3032;49.484;11.112;2024-01-15T15:37:49;1.30;99.90
6008;DHT22;3032;49.484;11.112;2024-01-15T15:40:15;1.30;99.90
6008;DHT22;3032;49.484;11.112;2024-01-15T15:42:40;1.30;99.90
6008;DHT22;3032;49.484;11.112;2024-01-15T15:45:06;1.40;99.90
6008;DHT22;3032;49.484;11.112;2024-01-15T15:47:32;1.30;99.90
6008;DHT22;3032;49.484;11.112;2024-01-15T15:49:58;1.40;99.90
6008;DHT22;3032;49.484;11.112;2024-01-15T15:52:24;1.30;99.90
6008;DHT22;3032;49.484;11.112;2024-01-15T15:54:50;1.30;99.90
6008;DHT22;3032;49.484;11.112;2024-01-15T15:57:15;1.30;99.90
6008;DHT22;3032;49.484;11.112;2024-01-15T15:59:41;1.20;99.90
6008;DHT22;3032;49.484;11.112;2024-01-15T16:02:06;1.30;99.90